createdAt,value
2022-08-26T00:03:03.000Z,971.2
2022-08-26T00:33:07.000Z,971.1
2022-08-26T01:03:10.000Z,971.2
2022-08-26T01:33:20.000Z,971.3
2022-08-26T02:03:21.000Z,971.4
2022-08-26T02:33:23.000Z,971.3
2022-08-26T03:03:26.542Z,971.3
2022-08-26T03:33:28.000Z,971.3
2022-08-26T04:03:32.000Z,971.2
2022-08-26T04:33:35.044Z,971.2
2022-08-26T05:03:35.151Z,971.2
2022-08-26T05:33:36.170Z,971.4
2022-08-26T06:03:37.223Z,971.6
2022-08-26T06:33:39.096Z,971.6
2022-08-26T07:03:40.356Z,971.7
2022-08-26T07:33:43.223Z,972
2022-08-26T08:03:52.362Z,971.8
2022-08-26T08:33:57.215Z,971.7
2022-08-26T09:03:58.240Z,971.5
2022-08-26T09:34:01.288Z,971
2022-08-26T10:04:09.326Z,970.8
2022-08-26T10:34:14.556Z,970.5
2022-08-26T11:04:18.488Z,970.2
2022-08-26T11:34:23.813Z,970.1
2022-08-26T11:37:32.000Z,970.0
2022-08-26T12:07:35.000Z,969.5
2022-08-26T12:37:37.000Z,969.6
2022-08-26T13:07:50.000Z,970.6
2022-08-26T13:37:54.000Z,968.6
2022-08-26T14:07:54.724Z,969.3
2022-08-26T14:37:54.847Z,968.8
2022-08-26T15:08:01.734Z,969.4
2022-08-26T15:38:11.000Z,969.1
2022-08-26T16:08:16.201Z,969.2
2022-08-26T16:38:19.000Z,969.9
2022-08-26T17:08:20.000Z,969.9
2022-08-26T17:38:34.000Z,970.0
2022-08-26T18:08:37.000Z,970.4
2022-08-26T18:38:38.000Z,970.9
2022-08-26T19:08:39.000Z,970.8
2022-08-26T19:38:52.000Z,971.4
2022-08-26T20:08:55.000Z,971.4
2022-08-26T20:39:07.000Z,971.3
2022-08-26T21:09:07.000Z,971.5
2022-08-26T21:39:09.000Z,971.5
2022-08-26T22:09:18.000Z,971.8
2022-08-26T22:39:21.000Z,972.2
2022-08-26T23:09:24.000Z,972.3
2022-08-26T23:39:26.564Z,971.9
